Time;durP1;ratioP1;P1;durP2;ratioP2;P2;SDS_P1;SDS_P2;PMS_P1;PMS_P2;Temp;Humidity;BMP_temperature;BMP_pressure;BME280_temperature;BME280_humidity;BME280_pressure;Samples;Min_cycle;Max_cycle;Signal;HPM_P1;HPM_P2
2023/12/13 00:02:55;;;;;;;;;12.75;11.50;;;;;8.23;73.08;101060.00;146634;581;45021;-68
2023/12/13 00:06:06;;;;;;;;;13.00;13.00;;;;;8.23;72.93;101065.19;146630;599;45915;-70
2023/12/13 00:09:01;;;;;;;;;16.50;13.50;;;;;8.23;72.82;101064.28;146610;590;47021;-68
2023/12/13 00:11:57;;;;;;;;;17.00;14.25;;;;;8.21;73.29;101056.41;146608;599;46012;-68
2023/12/13 00:15:12;;;;;;;;;19.75;16.75;;;;;6.05;72.01;100678.34;146605;605;46020;-68
2023/12/13 00:18:36;;;;;;;;;17.75;16.25;;;;;4.10;71.78;100346.09;146611;579;46016;-66
2023/12/13 00:21:45;;;;;;;;;15.50;13.25;;;;;8.26;73.02;101072.25;146608;662;47010;-69
2023/12/13 00:24:53;;;;;;;;;13.50;9.50;;;;;8.25;72.69;101060.09;146611;580;46016;-69
2023/12/13 00:27:51;;;;;;;;;14.00;10.75;;;;;8.18;72.50;101048.47;146621;618;47010;-68
2023/12/13 00:30:47;;;;;;;;;14.00;10.75;;;;;8.23;72.86;101062.59;146609;594;46017;-68
2023/12/13 00:33:53;;;;;;;;;5.50;5.50;;;;;8.21;73.14;101061.59;146612;606;47020;-69
2023/12/13 00:36:48;;;;;;;;;11.75;9.50;;;;;8.20;73.68;101067.56;146611;626;48012;-68
2023/12/13 00:39:51;;;;;;;;;11.00;9.25;;;;;8.16;73.10;101057.81;146606;578;46021;-68
2023/12/13 00:43:17;;;;;;;;;13.25;11.50;;;;;8.18;72.52;101057.91;146618;569;46016;-69
2023/12/13 00:46:22;;;;;;;;;6.75;6.75;;;;;8.20;72.74;101054.63;146611;571;46020;-64
2023/12/13 00:49:18;;;;;;;;;11.75;8.00;;;;;8.21;73.43;101061.59;146622;569;46016;-68
2023/12/13 00:52:16;;;;;;;;;8.50;6.75;;;;;8.21;73.18;101053.84;146618;595;47010;-68
2023/12/13 00:55:23;;;;;;;;;13.50;9.50;;;;;8.24;73.45;101046.28;146612;591;46037;-69
2023/12/13 00:58:17;;;;;;;;;12.75;10.00;;;;;8.26;72.69;101042.12;146621;643;46010;-67
2023/12/13 01:01:25;;;;;;;;;14.00;12.25;;;;;8.20;72.67;101040.84;146601;613;48013;-66
2023/12/13 01:04:23;;;;;;;;;10.75;10.50;;;;;8.14;72.15;101041.31;146612;762;46020;-66
2023/12/13 01:07:23;;;;;;;;;15.50;12.50;;;;;8.09;72.55;101045.28;146609;601;46016;-67
2023/12/13 01:10:23;;;;;;;;;18.00;16.00;;;;;8.02;71.87;101048.25;146630;576;45037;-66
2023/12/13 01:13:28;;;;;;;;;23.75;21.75;;;;;7.95;72.87;101043.47;146631;594;45012;-65
2023/12/13 01:16:29;;;;;;;;;18.25;17.00;;;;;7.93;73.66;101043.37;146635;569;45010;-67
2023/12/13 01:19:49;;;;;;;;;25.00;22.75;;;;;7.86;73.15;101046.34;146633;631;46021;-65
2023/12/13 01:22:46;;;;;;;;;33.25;30.75;;;;;7.78;73.52;101045.81;146635;633;45021;-66
2023/12/13 01:25:47;;;;;;;;;44.00;33.50;;;;;7.75;74.22;101042.12;146632;735;46014;-65
2023/12/13 01:28:49;;;;;;;;;41.50;33.25;;;;;7.72;74.25;101040.22;146634;598;46010;-66
2023/12/13 01:31:55;;;;;;;;;38.25;33.00;;;;;7.69;74.77;101024.53;146631;580;46012;-67
2023/12/13 01:34:47;;;;;;;;;33.50;31.50;;;;;7.68;74.46;101016.69;146633;639;45010;-66
2023/12/13 01:37:44;;;;;;;;;33.25;28.50;;;;;7.68;73.92;101004.69;146635;697;46010;-66
2023/12/13 01:40:40;;;;;;;;;37.25;31.75;;;;;7.71;74.55;101010.06;146627;584;46010;-65
2023/12/13 01:43:42;;;;;;;;;38.50;31.25;;;;;7.66;74.83;100995.94;146635;592;45012;-65
2023/12/13 01:46:39;;;;;;;;;37.25;32.25;;;;;7.65;74.36;101001.91;146635;573;45020;-66
2023/12/13 01:49:31;;;;;;;;;32.75;27.75;;;;;7.63;74.61;101001.81;146631;597;45913;-66
2023/12/13 01:52:42;;;;;;;;;34.75;29.75;;;;;7.63;74.85;100996.66;146636;626;45010;-66
2023/12/13 01:55:41;;;;;;;;;30.75;28.50;;;;;7.64;74.61;100997.53;146632;577;46012;-66
2023/12/13 01:58:50;;;;;;;;;31.50;28.00;;;;;7.68;74.61;100994.38;146628;581;47014;-66
2023/12/13 02:01:52;;;;;;;;;30.00;25.50;;;;;7.69;75.45;100984.94;146633;569;45914;-67
2023/12/13 02:04:55;;;;;;;;;24.75;22.75;;;;;7.67;76.13;100984.84;146631;589;46010;-66
2023/12/13 02:07:52;;;;;;;;;23.50;20.75;;;;;7.67;75.60;100986.53;146627;571;46014;-66
2023/12/13 02:11:00;;;;;;;;;18.00;16.25;;;;;7.66;75.64;100979.56;146606;599;46020;-66
2023/12/13 02:14:04;;;;;;;;;16.75;16.75;;;;;7.68;75.99;100975.41;146611;711;46016;-67
2023/12/13 02:17:04;;;;;;;;;17.50;13.25;;;;;7.68;76.34;100970.25;146609;563;46021;-67
2023/12/13 02:20:06;;;;;;;;;16.00;12.75;;;;;7.72;76.34;100965.38;146611;611;46016;-67
2023/12/13 02:23:07;;;;;;;;;14.75;13.75;;;;;7.76;75.85;100969.09;146613;636;46021;-67
2023/12/13 02:26:21;;;;;;;;;10.00;10.00;;;;;7.79;75.93;100969.28;146612;613;47014;-68
2023/12/13 02:29:29;;;;;;;;;18.25;16.00;;;;;7.78;76.30;100963.19;146612;580;47015;-67
2023/12/13 02:32:31;;;;;;;;;14.25;11.00;;;;;7.78;75.72;100957.16;146609;576;46913;-65
2023/12/13 02:35:40;;;;;;;;;14.75;12.00;;;;;7.82;76.34;100956.59;146614;586;46020;-66
2023/12/13 02:38:35;;;;;;;;;10.50;9.75;;;;;7.82;76.08;100954.88;146614;572;46012;-65
2023/12/13 02:41:42;;;;;;;;;10.25;10.25;;;;;7.83;76.14;100953.19;146608;618;46020;-65
2023/12/13 02:44:40;;;;;;;;;13.50;10.50;;;;;7.86;76.22;100959.44;146609;593;47016;-65
2023/12/13 02:47:32;;;;;;;;;7.75;7.75;;;;;7.87;76.01;100962.91;146614;627;46020;-64
2023/12/13 02:50:39;;;;;;;;;8.50;8.50;;;;;7.91;75.55;100966.59;146616;572;46914;-65
2023/12/13 02:53:38;;;;;;;;;17.50;17.00;;;;;7.93;75.99;100957.28;146614;565;47021;-67
2023/12/13 02:56:42;;;;;;;;;18.25;15.75;;;;;7.93;75.66;100958.16;146608;639;47014;-67
2023/12/13 02:59:58;;;;;;;;;12.00;12.00;;;;;2.34;73.28;99984.22;146613;583;46021;-67
2023/12/13 03:03:07;;;;;;;;;;;;;;;;;;;;;
2023/12/13 03:06:15;;;;;;;;;16.50;15.50;;;;;7.77;74.46;100951.09;146614;588;46020;-67
2023/12/13 03:09:11;;;;;;;;;14.00;12.00;;;;;7.66;75.31;100946.00;146611;570;46016;-67
2023/12/13 03:12:27;;;;;;;;;12.25;10.50;;;;;7.62;75.68;100950.06;146607;650;46020;-67
2023/12/13 03:15:33;;;;;;;;;10.00;9.75;;;;;7.60;75.58;100949.06;146611;607;47013;-68
2023/12/13 03:18:35;;;;;;;;;10.50;8.25;;;;;7.56;75.50;100945.41;146620;587;47010;-67
2023/12/13 03:21:46;;;;;;;;;7.00;7.00;;;;;7.52;75.67;100940.84;146615;570;47014;-66
2023/12/13 03:24:42;;;;;;;;;8.00;8.00;;;;;7.51;75.10;100946.81;146618;590;46034;-67
2023/12/13 03:27:47;;;;;;;;;;;;;;;;;;;;;
2023/12/13 03:31:01;;;;;;;;;11.00;9.00;;;;;7.46;75.44;100955.03;146619;578;47010;-68
2023/12/13 03:34:17;;;;;;;;;10.00;10.00;;;;;7.41;75.02;100952.13;146617;579;46016;-65
2023/12/13 03:37:15;;;;;;;;;11.75;9.00;;;;;7.30;75.17;100946.25;146612;583;47010;-66
2023/12/13 03:40:14;;;;;;;;;13.25;12.25;;;;;7.25;75.49;100957.03;146613;593;46016;-65
2023/12/13 03:43:13;;;;;;;;;12.00;10.25;;;;;7.21;75.12;100953.34;146606;660;46047;-65
2023/12/13 03:46:16;;;;;;;;;15.00;12.00;;;;;7.16;75.20;100952.13;146607;565;46014;-65
2023/12/13 03:49:11;;;;;;;;;15.00;13.25;;;;;7.12;75.63;100950.16;146610;628;46020;-66
2023/12/13 03:52:03;;;;;;;;;16.25;12.25;;;;;7.08;76.29;100951.63;146609;744;46012;-67
2023/12/13 03:55:04;;;;;;;;;13.00;13.00;;;;;7.05;75.17;100959.16;146612;569;46010;-66
2023/12/13 03:58:09;;;;;;;;;12.50;11.25;;;;;7.04;75.52;100959.03;146609;673;46017;-66
2023/12/13 04:01:13;;;;;;;;;19.25;17.50;;;;;7.02;75.36;100953.78;146610;575;47010;-67
2023/12/13 04:04:19;;;;;;;;;11.75;11.00;;;;;7.00;76.10;100957.94;146602;734;47016;-68
2023/12/13 04:07:19;;;;;;;;;10.75;10.75;;;;;7.00;76.35;100954.47;146615;581;46010;-66
2023/12/13 04:10:23;;;;;;;;;10.75;8.25;;;;;7.00;76.16;100957.94;146630;564;46012;-67
2023/12/13 04:13:33;;;;;;;;;10.00;7.75;;;;;6.96;76.49;100960.19;146630;625;46015;-67
2023/12/13 04:17:01;;;;;;;;;8.00;7.75;;;;;6.89;76.18;100951.16;146634;564;45035;-67
2023/12/13 04:19:58;;;;;;;;;9.50;9.50;;;;;6.78;77.04;100949.50;146636;592;45020;-67
2023/12/13 04:22:56;;;;;;;;;10.50;9.75;;;;;6.81;77.66;100950.59;146631;582;45016;-66
2023/12/13 04:25:51;;;;;;;;;11.25;9.75;;;;;6.83;77.21;100948.16;146636;636;45010;-67
2023/12/13 04:28:55;;;;;;;;;8.75;8.25;;;;;2.50;76.68;100181.62;146632;602;45916;-67
2023/12/13 04:32:17;;;;;;;;;11.50;8.50;;;;;6.92;77.54;100947.09;146632;569;45040;-65
2023/12/13 04:35:18;;;;;;;;;7.25;6.75;;;;;6.96;77.00;100965.34;146634;569;45017;-67
2023/12/13 04:38:35;;;;;;;;;9.00;8.50;;;;;6.96;77.36;100966.25;146632;610;45014;-67
2023/12/13 04:41:32;;;;;;;;;9.75;8.75;;;;;6.97;77.03;100970.59;146634;569;46012;-68
2023/12/13 04:44:34;;;;;;;;;10.75;9.50;;;;;7.01;76.94;100982.00;146629;597;45014;-67
2023/12/13 04:47:37;;;;;;;;;12.25;10.00;;;;;7.01;76.67;100985.53;146633;579;45916;-67
2023/12/13 04:50:30;;;;;;;;;12.00;10.00;;;;;7.00;77.34;100986.28;146635;609;45015;-67
2023/12/13 04:53:32;;;;;;;;;12.00;10.25;;;;;7.00;77.51;100987.97;146630;577;46915;-68
2023/12/13 04:56:29;;;;;;;;;14.00;13.50;;;;;7.01;77.17;100987.19;146634;602;47010;-68
2023/12/13 04:59:25;;;;;;;;;10.25;10.25;;;;;7.04;77.43;100975.41;146632;575;45035;-67
2023/12/13 05:02:30;;;;;;;;;13.50;11.25;;;;;7.08;77.43;100976.53;146635;600;45020;-68
2023/12/13 05:05:27;;;;;;;;;14.00;11.25;;;;;7.07;77.03;100969.56;146634;569;45014;-66
2023/12/13 05:08:30;;;;;;;;;13.75;12.25;;;;;7.03;77.04;100967.56;146628;616;46020;-68
2023/12/13 05:11:26;;;;;;;;;16.25;15.50;;;;;6.99;76.71;100973.31;146613;575;46033;-68
2023/12/13 05:14:44;;;;;;;;;18.50;17.50;;;;;4.33;75.26;100511.09;146606;612;46021;-68
2023/12/13 05:17:45;;;;;;;;;18.50;15.50;;;;;6.96;76.55;100978.25;146610;573;46018;-66
2023/12/13 05:20:54;;;;;;;;;;;;;;;;;;;;;
2023/12/13 05:23:52;;;;;;;;;26.75;21.25;;;;;6.90;77.00;100986.44;146605;683;47012;-66
2023/12/13 05:26:55;;;;;;;;;25.25;21.75;;;;;6.85;76.97;100968.09;146613;565;46010;-67
2023/12/13 05:29:56;;;;;;;;;21.25;18.00;;;;;6.81;77.47;100968.66;146599;603;47916;-67
2023/12/13 05:32:49;;;;;;;;;23.50;21.00;;;;;6.80;77.70;100964.28;146612;580;46020;-67
2023/12/13 05:35:51;;;;;;;;;21.50;21.00;;;;;6.77;77.81;100960.59;146610;622;46017;-67
2023/12/13 05:38:56;;;;;;;;;23.50;17.25;;;;;6.76;78.30;100964.88;146610;610;46020;-69
2023/12/13 05:41:56;;;;;;;;;17.25;16.00;;;;;6.75;78.62;100965.63;146605;577;47013;-68
2023/12/13 05:44:54;;;;;;;;;13.75;13.00;;;;;6.77;78.36;100960.59;146608;588;46010;-68
2023/12/13 05:48:19;;;;;;;;;;;;;;;;;;;;;
2023/12/13 05:51:23;;;;;;;;;17.00;14.00;;;;;6.84;78.99;100947.34;146612;564;45021;-68
2023/12/13 05:54:25;;;;;;;;;16.25;15.75;;;;;6.88;79.16;100955.37;146604;592;46016;-70
2023/12/13 05:57:32;;;;;;;;;17.00;14.50;;;;;6.97;78.92;100947.41;146610;593;46021;-71
2023/12/13 06:00:53;;;;;;;;;21.00;19.50;;;;;7.09;78.89;100953.41;146609;594;46037;-71
2023/12/13 06:03:50;;;;;;;;;17.00;14.00;;;;;7.20;79.42;100943.84;146612;639;47020;-71
2023/12/13 06:07:11;;;;;;;;;14.25;13.25;;;;;7.30;78.83;100948.81;146610;609;46034;-71
2023/12/13 06:10:07;;;;;;;;;18.00;16.75;;;;;7.43;79.54;100959.97;146623;626;46020;-72
2023/12/13 06:13:02;;;;;;;;;76.33;64.67;;;;;7.55;79.88;100953.06;146632;594;45017;-71
2023/12/13 06:15:59;;;;;;;;;29.25;25.50;;;;;7.69;79.66;100941.94;146630;589;45010;-70
2023/12/13 06:19:08;;;;;;;;;15.00;14.00;;;;;7.81;78.64;100952.19;146627;564;47013;-71
2023/12/13 06:22:12;;;;;;;;;18.50;15.25;;;;;7.90;79.70;100957.97;146634;593;46010;-71
2023/12/13 06:25:24;;;;;;;;;48.75;38.25;;;;;8.05;78.85;100960.66;146630;598;46010;-71
2023/12/13 06:28:17;;;;;;;;;22.00;19.50;;;;;8.15;79.27;100962.13;146634;585;46014;-71
2023/12/13 06:31:10;;;;;;;;;14.00;13.75;;;;;8.27;79.84;100966.41;146632;631;46012;-71
2023/12/13 06:34:17;;;;;;;;;22.50;20.25;;;;;8.47;79.02;100974.56;146632;569;46020;-70
2023/12/13 06:37:11;;;;;;;;;46.25;36.25;;;;;8.70;80.72;100956.22;146629;599;45017;-71
2023/12/13 06:40:14;;;;;;;;;33.75;28.50;;;;;5.96;79.89;100440.94;146634;687;45010;-71
2023/12/13 06:43:11;;;;;;;;;55.75;44.00;;;;;9.24;81.53;100957.81;146634;666;45013;-70
2023/12/13 06:46:14;;;;;;;;;61.75;46.75;;;;;9.68;82.43;100962.13;146628;576;45020;-71
2023/12/13 06:49:22;;;;;;;;;47.75;38.00;;;;;10.27;81.72;100971.59;146631;597;45016;-71
2023/12/13 06:52:20;;;;;;;;;45.00;37.75;;;;;11.19;84.74;100967.94;146634;607;45020;-70
2023/12/13 06:55:20;;;;;;;;;37.00;32.75;;;;;12.08;82.77;100969.88;146635;577;45016;-71
2023/12/13 06:58:15;;;;;;;;;52.00;40.00;;;;;13.06;75.29;100974.50;146636;629;45014;-70
2023/12/13 07:01:30;;;;;;;;;60.50;47.00;;;;;13.73;68.44;100964.44;146632;647;45029;-71
2023/12/13 07:04:25;;;;;;;;;65.75;50.75;;;;;13.96;63.75;100968.00;146633;596;45020;-69
2023/12/13 07:07:22;;;;;;;;;60.25;47.75;;;;;13.99;64.46;100970.75;146632;635;46915;-71
2023/12/13 07:10:46;;;;;;;;;66.25;51.00;;;;;14.08;64.13;100967.59;146611;585;47015;-70
2023/12/13 07:14:10;;;;;;;;;;;;;;;;;;;;;
2023/12/13 07:17:16;;;;;;;;;66.25;51.50;;;;;14.64;64.37;100978.53;146605;575;47010;-70
2023/12/13 07:20:29;;;;;;;;;;;;;;;;;;;;;
2023/12/13 07:23:25;;;;;;;;;66.25;50.00;;;;;15.85;60.34;100980.38;146611;593;46020;-70
2023/12/13 07:26:44;;;;;;;;;60.75;48.25;;;;;16.09;56.93;100981.19;146607;647;47017;-70
2023/12/13 07:29:42;;;;;;;;;60.50;48.00;;;;;16.03;55.98;100983.59;146608;605;46014;-70
2023/12/13 07:32:34;;;;;;;;;63.25;49.75;;;;;15.82;56.62;100975.91;146606;620;46016;-69
2023/12/13 07:35:36;;;;;;;;;55.00;44.75;;;;;15.59;55.58;100975.09;146612;604;46028;-70
2023/12/13 07:38:29;;;;;;;;;63.75;49.25;;;;;15.22;56.15;100976.41;146609;594;46016;-70
2023/12/13 07:41:37;;;;;;;;;;;;;;;;;;;;;
2023/12/13 07:44:35;;;;;;;;;63.25;50.00;;;;;14.37;57.80;100954.88;146611;593;46016;-70
2023/12/13 07:47:50;;;;;;;;;62.25;49.00;;;;;13.90;59.22;100956.44;146605;601;47010;-70
2023/12/13 07:51:01;;;;;;;;;68.50;54.00;;;;;13.53;60.71;100945.34;146609;583;46014;-70
2023/12/13 07:54:19;;;;;;;;;65.00;50.75;;;;;13.23;62.00;100942.25;146612;594;46020;-69
2023/12/13 07:57:17;;;;;;;;;65.00;53.25;;;;;13.06;63.44;100935.44;146608;611;47012;-70
2023/12/13 08:00:42;;;;;;;;;69.50;54.75;;;;;12.93;64.31;100916.69;146612;617;46010;-70
2023/12/13 08:03:55;;;;;;;;;69.00;55.75;;;;;11.22;64.74;100628.09;146608;571;46017;-69
2023/12/13 08:07:14;;;;;;;;;71.25;55.00;;;;;12.72;65.86;100892.28;146610;659;46020;-70
2023/12/13 08:10:08;;;;;;;;;66.00;50.50;;;;;12.69;66.31;100890.44;146628;583;45916;-70
2023/12/13 08:13:06;;;;;;;;;66.25;51.50;;;;;12.70;67.39;100897.41;146629;628;46014;-70
2023/12/13 08:16:20;;;;;;;;;64.75;50.75;;;;;12.73;67.04;100900.97;146634;658;44041;-70
2023/12/13 08:19:24;;;;;;;;;69.50;54.50;;;;;12.76;68.10;100899.41;146624;618;46021;-69
2023/12/13 08:22:24;;;;;;;;;68.00;56.50;;;;;12.79;68.28;100896.94;146628;655;46016;-70
2023/12/13 08:25:19;;;;;;;;;68.75;55.25;;;;;12.80;67.89;100893.50;146632;625;46020;-70
2023/12/13 08:28:17;;;;;;;;;70.50;55.75;;;;;12.80;67.25;100896.09;146633;581;45012;-70
2023/12/13 08:31:21;;;;;;;;;66.50;51.50;;;;;8.89;66.58;100218.72;146633;692;45014;-70
2023/12/13 08:34:23;;;;;;;;;60.75;47.00;;;;;12.73;67.08;100881.03;146628;564;46012;-70
2023/12/13 08:37:25;;;;;;;;;59.75;48.00;;;;;12.70;66.84;100880.91;146634;569;45020;-70
2023/12/13 08:40:34;;;;;;;;;66.00;52.00;;;;;12.68;66.61;100873.06;146632;564;45916;-70
2023/12/13 08:43:39;;;;;;;;;58.25;47.00;;;;;12.69;66.76;100866.12;146634;618;45020;-70
2023/12/13 08:46:38;;;;;;;;;64.75;50.00;;;;;12.68;66.79;100872.16;146631;588;45915;-70
2023/12/13 08:50:05;;;;;;;;;66.75;52.00;;;;;12.70;66.51;100871.37;146629;615;45020;-73
2023/12/13 08:53:07;;;;;;;;;63.75;49.75;;;;;12.73;66.87;100880.16;146633;620;45016;-70
2023/12/13 08:56:02;;;;;;;;;66.50;51.00;;;;;12.77;66.63;100869.94;146634;606;46021;-70
2023/12/13 08:58:58;;;;;;;;;67.50;52.25;;;;;12.79;66.69;100865.72;146631;591;45916;-70
2023/12/13 09:01:53;;;;;;;;;65.50;52.00;;;;;12.81;66.44;100865.78;146634;595;45020;-71
2023/12/13 09:05:05;;;;;;;;;65.75;51.50;;;;;9.10;65.91;100216.31;146631;632;46012;-70
2023/12/13 09:08:06;;;;;;;;;64.75;50.50;;;;;12.87;66.42;100866.06;146628;566;45020;-69
2023/12/13 09:11:02;;;;;;;;;67.00;50.25;;;;;12.90;66.55;100861.00;146608;591;46016;-70
2023/12/13 09:14:02;;;;;;;;;67.25;51.75;;;;;12.93;66.28;100859.41;146613;581;46020;-70
2023/12/13 09:17:00;;;;;;;;;63.50;50.00;;;;;12.91;66.00;100848.03;146607;582;47013;-70
2023/12/13 09:20:01;;;;;;;;;65.00;50.75;;;;;12.91;66.23;100854.97;146604;630;46020;-69
2023/12/13 09:22:53;;;;;;;;;62.75;48.50;;;;;12.90;66.55;100861.88;146608;590;47014;-68
2023/12/13 09:25:44;;;;;;;;;67.75;53.00;;;;;12.91;66.78;100863.66;146606;588;47014;-68
2023/12/13 09:28:36;;;;;;;;;67.00;51.75;;;;;12.92;67.01;100859.34;146612;601;46016;-68
2023/12/13 09:31:37;;;;;;;;;68.50;53.00;;;;;12.95;66.94;100860.34;146611;599;46020;-69
2023/12/13 09:34:36;;;;;;;;;63.50;50.25;;;;;12.97;67.15;100864.75;146605;595;46012;-69
2023/12/13 09:37:27;;;;;;;;;71.00;58.25;;;;;12.98;67.26;100859.59;146612;621;46020;-67
2023/12/13 09:40:25;;;;;;;;;70.33;61.00;;;;;12.99;67.21;100865.69;146608;616;47012;-70
2023/12/13 09:43:27;;;;;;;;;67.75;54.50;;;;;12.99;67.14;100858.78;146611;585;46020;-68
2023/12/13 09:46:32;;;;;;;;;72.50;56.75;;;;;12.98;67.44;100850.91;146609;606;46016;-68
2023/12/13 09:49:27;;;;;;;;;76.67;69.00;;;;;12.98;66.61;100843.09;146608;780;46010;-68
2023/12/13 09:52:27;;;;;;;;;76.33;63.67;;;;;12.94;66.93;100835.16;146609;569;46012;-67
2023/12/13 09:55:23;;;;;;;;;81.33;68.67;;;;;12.91;67.11;100821.13;146614;592;47021;-68
2023/12/13 09:58:15;;;;;;;;;105.33;91.33;;;;;12.82;67.45;100812.91;146617;804;47012;-68
2023/12/13 10:01:16;;;;;;;;;87.67;77.67;;;;;12.83;67.29;100812.09;146621;596;46010;-68
2023/12/13 10:04:08;;;;;;;;;87.33;75.33;;;;;12.78;67.99;100817.09;146617;668;46012;-68
2023/12/13 10:07:00;;;;;;;;;96.33;84.00;;;;;12.77;68.67;100811.81;146618;587;47044;-70
2023/12/13 10:10:05;;;;;;;;;87.67;71.67;;;;;12.80;69.49;100822.34;146640;602;45030;-69
2023/12/13 10:13:02;;;;;;;;;65.50;51.25;;;;;12.79;68.93;100818.00;146636;613;45030;-69
2023/12/13 10:15:59;;;;;;;;;70.00;54.75;;;;;12.75;69.12;100822.16;146632;610;46016;-69
2023/12/13 10:18:51;;;;;;;;;66.75;50.00;;;;;12.70;69.25;100806.34;146629;596;46010;-69
2023/12/13 10:21:45;;;;;;;;;60.75;47.25;;;;;12.71;69.22;100809.87;146629;671;46014;-68
2023/12/13 10:24:41;;;;;;;;;58.50;46.50;;;;;12.73;69.24;100808.19;146632;608;46020;-68
2023/12/13 10:27:44;;;;;;;;;69.25;52.25;;;;;12.77;69.50;100799.69;146631;596;46012;-69
2023/12/13 10:30:47;;;;;;;;;63.00;49.25;;;;;12.83;69.04;100794.75;146631;611;46010;-69
2023/12/13 10:33:49;;;;;;;;;55.25;43.00;;;;;12.90;69.10;100789.00;146632;668;45016;-67
2023/12/13 10:36:47;;;;;;;;;64.50;50.50;;;;;12.95;68.87;100787.47;146635;640;45020;-68
2023/12/13 10:39:53;;;;;;;;;53.25;42.00;;;;;12.96;68.51;100783.19;146630;630;46012;-67
2023/12/13 10:42:54;;;;;;;;;60.00;43.25;;;;;12.92;68.62;100774.31;146637;564;45010;-67
2023/12/13 10:46:05;;;;;;;;;54.75;44.50;;;;;12.91;68.40;100769.97;146634;573;44914;-68
2023/12/13 10:49:00;;;;;;;;;55.75;43.25;;;;;12.86;68.62;100766.25;146629;563;46010;-68
2023/12/13 10:51:57;;;;;;;;;55.50;44.00;;;;;12.82;68.23;100751.34;146633;569;45012;-69
2023/12/13 10:55:14;;;;;;;;;54.00;42.75;;;;;12.78;68.68;100746.84;146632;585;46010;-70
2023/12/13 10:58:34;;;;;;;;;58.75;45.00;;;;;12.71;68.88;100750.91;146628;598;46016;-69
2023/12/13 11:01:38;;;;;;;;;67.50;51.00;;;;;12.60;68.41;100748.66;146629;595;46021;-68
2023/12/13 11:04:32;;;;;;;;;57.75;46.75;;;;;12.55;69.05;100735.44;146620;605;48914;-70
2023/12/13 11:07:29;;;;;;;;;63.25;49.00;;;;;12.54;69.34;100738.87;146635;566;45020;-69
2023/12/13 11:10:29;;;;;;;;;56.00;43.00;;;;;12.52;69.05;100742.22;146607;619;46016;-69
2023/12/13 11:13:25;;;;;;;;;56.75;45.25;;;;;12.48;69.12;100743.81;146611;584;47010;-70
2023/12/13 11:16:32;;;;;;;;;57.25;45.00;;;;;12.49;69.84;100737.78;146609;569;47916;-69
2023/12/13 11:19:31;;;;;;;;;60.00;46.50;;;;;12.45;69.35;100734.16;146608;613;46020;-72
2023/12/13 11:22:28;;;;;;;;;55.00;44.75;;;;;12.44;69.54;100739.31;146610;655;46012;-69
2023/12/13 11:25:21;;;;;;;;;54.50;43.50;;;;;12.46;69.77;100737.63;146611;616;46010;-69
2023/12/13 11:28:26;;;;;;;;;48.00;39.50;;;;;12.48;69.62;100734.28;146609;581;46012;-68
2023/12/13 11:31:25;;;;;;;;;60.25;47.50;;;;;12.58;70.19;100734.69;146612;606;46021;-69
2023/12/13 11:34:21;;;;;;;;;60.25;48.25;;;;;12.69;70.26;100721.31;146603;590;46012;-69
2023/12/13 11:37:16;;;;;;;;;52.50;42.25;;;;;12.79;69.74;100720.00;146612;596;47011;-68
2023/12/13 11:40:13;;;;;;;;;56.75;43.75;;;;;12.87;69.00;100715.13;146606;610;46016;-69
2023/12/13 11:43:08;;;;;;;;;60.00;47.75;;;;;12.91;68.63;100712.69;146611;611;47010;-70
2023/12/13 11:46:01;;;;;;;;;63.75;47.25;;;;;12.92;68.01;100706.66;146610;624;46016;-69
2023/12/13 11:48:53;;;;;;;;;66.25;50.75;;;;;12.99;68.55;100710.44;146607;653;46020;-68
2023/12/13 11:51:47;;;;;;;;;57.25;44.25;;;;;13.09;68.04;100696.06;146607;608;46013;-69
2023/12/13 11:54:44;;;;;;;;;61.25;47.50;;;;;13.13;67.80;100698.84;146615;597;46034;-69
2023/12/13 11:57:42;;;;;;;;;54.50;43.25;;;;;13.15;67.56;100704.13;146608;582;46014;-69
2023/12/13 12:00:33;;;;;;;;;61.25;48.00;;;;;13.16;67.85;100705.91;146612;594;47010;-69
2023/12/13 12:03:45;;;;;;;;;60.25;47.75;;;;;13.12;67.31;100693.59;146608;694;47012;-69
2023/12/13 12:06:55;;;;;;;;;56.00;43.50;;;;;13.10;67.48;100696.12;146614;569;46021;-69
2023/12/13 12:10:00;;;;;;;;;53.25;44.25;;;;;13.10;67.22;100695.25;146632;570;46913;-69
2023/12/13 12:13:22;;;;;;;;;;;;;;;;;;;;;
2023/12/13 12:16:39;;;;;;;;;;;;;;;;;;;;;
2023/12/13 12:19:35;;;;;;;;;56.00;44.75;;;;;13.16;68.22;100698.97;146629;564;45022;-68
2023/12/13 12:22:55;;;;;;;;;62.50;47.25;;;;;13.16;68.44;100693.75;146633;580;45017;-68
2023/12/13 12:26:08;;;;;;;;;66.25;53.00;;;;;13.17;68.48;100686.84;146635;576;45020;-68
2023/12/13 12:29:04;;;;;;;;;62.00;47.25;;;;;13.18;68.82;100689.53;146632;578;46013;-69
2023/12/13 12:32:11;;;;;;;;;62.25;49.50;;;;;13.20;68.53;100681.75;146636;591;45010;-68
2023/12/13 12:35:10;;;;;;;;;64.50;50.50;;;;;13.22;68.40;100694.84;146633;585;45016;-70
2023/12/13 12:38:25;;;;;;;;;61.00;47.25;;;;;9.25;67.79;100007.53;146636;589;44027;-69
2023/12/13 12:41:28;;;;;;;;;62.00;48.75;;;;;13.27;68.59;100696.84;146631;700;46912;-68
2023/12/13 12:44:26;;;;;;;;;61.50;49.50;;;;;13.31;68.75;100705.66;146635;613;46014;-70
2023/12/13 12:47:33;;;;;;;;;61.00;48.00;;;;;13.33;68.57;100706.59;146633;695;45016;-70
2023/12/13 12:50:49;;;;;;;;;61.50;48.25;;;;;13.34;68.67;100708.41;146629;646;45011;-69
2023/12/13 12:53:47;;;;;;;;;59.75;46.25;;;;;13.26;68.35;100682.03;146631;579;45915;-69
2023/12/13 12:56:54;;;;;;;;;;;;;;;;;;;;;
2023/12/13 12:59:59;;;;;;;;;58.50;45.00;;;;;13.40;68.20;100673.06;146627;572;46019;-69
2023/12/13 13:03:06;;;;;;;;;55.50;43.25;;;;;13.47;68.20;100673.31;146635;650;45010;-70
2023/12/13 13:06:00;;;;;;;;;60.25;45.25;;;;;13.53;68.36;100666.59;146632;618;45916;-69
2023/12/13 13:09:00;;;;;;;;;61.00;47.75;;;;;13.69;67.94;100664.59;146625;651;45020;-68
2023/12/13 13:11:54;;;;;;;;;58.25;44.00;;;;;13.96;67.96;100663.00;146608;697;46012;-69
2023/12/13 13:14:49;;;;;;;;;61.25;47.00;;;;;14.37;68.15;100663.59;146612;564;46021;-71
2023/12/13 13:17:57;;;;;;;;;;;;;;;;;;;;;
2023/12/13 13:21:01;;;;;;;;;62.25;48.00;;;;;15.69;63.49;100660.91;146608;583;46032;-68
2023/12/13 13:23:55;;;;;;;;;64.00;49.50;;;;;16.15;61.05;100649.16;146607;625;47012;-68
2023/12/13 13:27:01;;;;;;;;;61.50;48.00;;;;;16.60;61.87;100668.66;146614;580;45020;-67
2023/12/13 13:30:03;;;;;;;;;66.50;51.00;;;;;16.99;59.08;100676.66;146607;565;46017;-68
2023/12/13 13:33:04;;;;;;;;;63.50;49.00;;;;;17.03;58.68;100662.78;146611;585;46037;-68
2023/12/13 13:35:56;;;;;;;;;58.75;46.00;;;;;17.01;59.04;100661.00;146610;625;46017;-70
2023/12/13 13:38:57;;;;;;;;;71.25;62.50;;;;;17.15;60.34;100656.97;146605;620;46020;-68
2023/12/13 13:41:54;;;;;;;;;67.50;55.50;;;;;17.42;57.99;100668.94;146609;681;47016;-69
2023/12/13 13:44:53;;;;;;;;;65.50;49.75;;;;;17.57;58.37;100660.50;146611;588;46020;-69
2023/12/13 13:47:52;;;;;;;;;61.00;48.75;;;;;17.81;57.79;100654.94;146614;569;46014;-70
2023/12/13 13:51:01;;;;;;;;;69.50;57.50;;;;;18.04;56.51;100643.19;146606;566;46021;-69
2023/12/13 13:53:58;;;;;;;;;62.50;50.75;;;;;18.18;55.62;100638.19;146611;576;46012;-68
2023/12/13 13:56:59;;;;;;;;;65.50;50.25;;;;;18.08;54.56;100639.75;146611;580;47020;-70
2023/12/13 14:00:05;;;;;;;;;70.75;61.25;;;;;17.78;56.57;100635.66;146606;622;46016;-70
2023/12/13 14:03:09;;;;;;;;;67.50;58.00;;;;;17.56;58.13;100625.53;146610;611;47020;-69
2023/12/13 14:06:02;;;;;;;;;70.00;58.00;;;;;17.51;58.35;100629.81;146608;629;47016;-68
2023/12/13 14:08:54;;;;;;;;;72.50;64.50;;;;;17.38;56.86;100638.25;146611;627;46020;-69
2023/12/13 14:12:02;;;;;;;;;72.75;64.25;;;;;13.72;58.85;100054.97;146609;600;46012;-68
2023/12/13 14:15:00;;;;;;;;;63.00;50.00;;;;;16.61;58.51;100649.50;146615;567;46010;-70